Time;durP1;ratioP1;P1;durP2;ratioP2;P2;SDS_P1;SDS_P2;PMS_P1;PMS_P2;Temp;Humidity;BMP_temperature;BMP_pressure;BME280_temperature;BME280_humidity;BME280_pressure;Samples;Min_cycle;Max_cycle;Signal;HPM_P1;HPM_P2
2022/04/22 00:00:46;;;;;;;7.82;5.38;;;;;;;;;;5064943;28;20040;-87
2022/04/22 00:03:12;;;;;;;9.55;6.07;;;;;;;;;;5060327;28;20055;-87
2022/04/22 00:05:41;;;;;;;9.35;5.45;;;;;;;;;;5052751;28;20063;-87
2022/04/22 00:08:08;;;;;;;9.25;5.65;;;;;;;;;;5059666;28;20063;-87
2022/04/22 00:10:34;;;;;;;8.23;5.30;;;;;;;;;;5059947;28;20036;-87
2022/04/22 00:13:01;;;;;;;9.77;5.68;;;;;;;;;;5066878;28;20051;-87
2022/04/22 00:15:28;;;;;;;8.15;5.40;;;;;;;;;;5054854;28;20056;-87
2022/04/22 00:18:00;;;;;;;9.77;6.22;;;;;;;;;;5066764;28;20058;-87
2022/04/22 00:20:27;;;;;;;7.53;5.38;;;;;;;;;;5061093;28;20044;-87
2022/04/22 00:22:54;;;;;;;8.45;6.10;;;;;;;;;;5065234;28;20131;-87
2022/04/22 00:25:20;;;;;;;9.25;5.38;;;;;;;;;;5067531;28;20710;-87
2022/04/22 00:27:47;;;;;;;10.50;6.28;;;;;;;;;;5064057;28;20041;-87
2022/04/22 00:30:13;;;;;;;10.88;6.45;;;;;;;;;;5062246;28;20136;-87
2022/04/22 00:32:40;;;;;;;9.55;6.65;;;;;;;;;;5063728;28;20763;-86
2022/04/22 00:35:09;;;;;;;11.00;6.57;;;;;;;;;;5055914;28;20044;-87
2022/04/22 00:37:36;;;;;;;12.10;6.47;;;;;;;;;;5066002;28;20045;-87
2022/04/22 00:40:03;;;;;;;10.68;6.05;;;;;;;;;;5059062;28;20052;-87
2022/04/22 00:42:30;;;;;;;10.40;6.38;;;;;;;;;;5064493;28;20683;-87
2022/04/22 00:44:57;;;;;;;11.70;6.50;;;;;;;;;;5067703;28;20044;-87
2022/04/22 00:47:27;;;;;;;11.07;7.32;;;;;;;;;;5065033;28;20516;-88
2022/04/22 00:49:53;;;;;;;11.15;6.68;;;;;;;;;;5058910;28;20045;-87
2022/04/22 00:52:22;;;;;;;10.00;6.57;;;;;;;;;;5063648;28;20657;-87
2022/04/22 00:54:49;;;;;;;14.63;7.60;;;;;;;;;;5058567;28;20053;-87
2022/04/22 00:57:16;;;;;;;13.38;8.10;;;;;;;;;;5054194;28;20044;-87
2022/04/22 00:59:43;;;;;;;13.30;7.72;;;;;;;;;;5067223;28;20063;-87
2022/04/22 01:02:10;;;;;;;12.50;7.45;;;;;;;;;;5061550;28;20490;-87
2022/04/22 01:10:08;;;;;;;10.98;7.28;;;;;;;;;;5063607;28;20091;-87
2022/04/22 01:12:35;;;;;;;13.05;7.38;;;;;;;;;;5057790;28;20041;-87
2022/04/22 01:15:01;;;;;;;11.55;7.45;;;;;;;;;;5063688;28;21811;-87
2022/04/22 01:17:29;;;;;;;12.55;7.97;;;;;;;;;;5055882;28;20048;-87
2022/04/22 01:19:55;;;;;;;12.13;7.90;;;;;;;;;;5052818;28;20041;-87
2022/04/22 01:22:24;;;;;;;13.55;7.82;;;;;;;;;;5057331;28;20120;-87
2022/04/22 01:24:53;;;;;;;15.35;8.48;;;;;;;;;;5062747;28;20048;-87
2022/04/22 01:27:20;;;;;;;14.73;8.15;;;;;;;;;;5066317;28;20048;-87
2022/04/22 01:29:46;;;;;;;13.75;8.02;;;;;;;;;;5066191;28;20515;-87
2022/04/22 01:32:13;;;;;;;12.32;7.95;;;;;;;;;;5053526;28;20049;-87
2022/04/22 01:34:42;;;;;;;13.35;7.63;;;;;;;;;;5057567;28;20665;-87
2022/04/22 01:37:09;;;;;;;14.60;8.48;;;;;;;;;;5055374;28;20045;-88
2022/04/22 01:39:37;;;;;;;12.15;8.05;;;;;;;;;;5064342;28;20036;-87
2022/04/22 01:42:04;;;;;;;11.55;8.00;;;;;;;;;;5047903;28;20049;-87
2022/04/22 01:44:30;;;;;;;13.18;7.80;;;;;;;;;;5052329;28;20078;-87
2022/04/22 01:46:57;;;;;;;14.98;8.82;;;;;;;;;;5073672;28;20054;-87
2022/04/22 01:49:24;;;;;;;13.07;8.02;;;;;;;;;;5058039;28;20148;-87
2022/04/22 01:51:50;;;;;;;12.65;8.38;;;;;;;;;;5062419;28;20452;-87
2022/04/22 01:54:17;;;;;;;15.05;8.77;;;;;;;;;;5057367;28;20109;-88
2022/04/22 01:56:45;;;;;;;13.98;9.50;;;;;;;;;;5054574;28;20057;-87
2022/04/22 01:59:12;;;;;;;13.07;8.07;;;;;;;;;;5060583;28;20040;-87
2022/04/22 02:01:38;;;;;;;17.45;10.55;;;;;;;;;;5069932;28;20055;-87
2022/04/22 02:04:05;;;;;;;15.48;9.32;;;;;;;;;;5061452;28;20507;-87
2022/04/22 02:06:32;;;;;;;14.63;9.38;;;;;;;;;;5057625;28;20049;-87
2022/04/22 02:08:59;;;;;;;14.45;9.65;;;;;;;;;;5055284;28;20048;-87
2022/04/22 02:11:25;;;;;;;15.98;9.23;;;;;;;;;;5058490;28;20057;-88
2022/04/22 02:13:53;;;;;;;16.77;9.82;;;;;;;;;;5059013;28;20049;-87
2022/04/22 02:16:23;;;;;;;17.40;8.93;;;;;;;;;;5066408;28;20044;-87
2022/04/22 02:18:49;;;;;;;14.40;9.10;;;;;;;;;;5069432;28;20059;-87
2022/04/22 02:21:16;;;;;;;17.13;9.50;;;;;;;;;;5057514;28;20041;-87
2022/04/22 02:23:43;;;;;;;15.63;9.93;;;;;;;;;;5062269;28;20058;-87
2022/04/22 02:26:09;;;;;;;14.60;9.35;;;;;;;;;;5077977;28;20058;-87
2022/04/22 02:28:35;;;;;;;15.63;9.55;;;;;;;;;;5064994;28;20049;-87
2022/04/22 02:31:05;;;;;;;15.40;10.07;;;;;;;;;;5069741;28;20051;-87
2022/04/22 02:33:32;;;;;;;16.80;10.15;;;;;;;;;;5059326;28;20048;-87
2022/04/22 02:35:59;;;;;;;18.70;10.45;;;;;;;;;;5060121;28;20072;-87
2022/04/22 02:38:26;;;;;;;15.30;10.05;;;;;;;;;;5047607;28;20052;-87
2022/04/22 02:46:22;;;;;;;17.67;10.98;;;;;;;;;;5062320;28;20056;-87
2022/04/22 02:48:48;;;;;;;18.35;10.95;;;;;;;;;;5065134;28;20053;-87
2022/04/22 02:51:15;;;;;;;19.75;10.95;;;;;;;;;;5063888;28;20060;-87
2022/04/22 02:53:42;;;;;;;18.10;11.70;;;;;;;;;;5063545;28;20123;-87
2022/04/22 02:56:08;;;;;;;19.27;12.05;;;;;;;;;;5062671;28;20053;-87
2022/04/22 02:58:35;;;;;;;20.20;12.30;;;;;;;;;;5064856;28;20055;-87
2022/04/22 03:01:02;;;;;;;20.50;12.38;;;;;;;;;;5058042;28;20049;-87
2022/04/22 03:03:30;;;;;;;19.15;11.45;;;;;;;;;;5065282;28;20448;-87
2022/04/22 03:05:57;;;;;;;20.23;12.45;;;;;;;;;;5064479;28;20132;-87
2022/04/22 03:08:23;;;;;;;19.42;11.25;;;;;;;;;;5052856;28;20049;-87
2022/04/22 03:10:50;;;;;;;21.58;12.60;;;;;;;;;;5056275;28;20087;-87
2022/04/22 03:13:17;;;;;;;21.85;12.68;;;;;;;;;;5064242;28;20416;-87
2022/04/22 03:15:44;;;;;;;21.15;12.23;;;;;;;;;;5061615;28;20044;-88
2022/04/22 03:18:14;;;;;;;23.70;12.88;;;;;;;;;;5073475;28;20053;-87
2022/04/22 03:20:42;;;;;;;20.08;12.02;;;;;;;;;;5048945;28;20052;-88
2022/04/22 03:23:09;;;;;;;22.10;13.20;;;;;;;;;;5062911;28;20681;-87
2022/04/22 03:25:36;;;;;;;21.48;12.75;;;;;;;;;;5064500;28;20272;-87
2022/04/22 03:28:04;;;;;;;20.15;11.45;;;;;;;;;;5052362;28;20064;-87
2022/04/22 03:30:31;;;;;;;21.15;12.50;;;;;;;;;;5060222;28;20456;-87
2022/04/22 03:32:58;;;;;;;20.17;11.65;;;;;;;;;;5059256;28;20041;-88
2022/04/22 03:35:24;;;;;;;21.80;13.13;;;;;;;;;;5063810;28;20041;-87
2022/04/22 03:37:52;;;;;;;21.63;13.10;;;;;;;;;;5069934;28;20427;-87
2022/04/22 03:40:18;;;;;;;19.98;12.70;;;;;;;;;;5061542;28;20824;-87
2022/04/22 03:42:45;;;;;;;23.85;14.30;;;;;;;;;;5066372;28;20709;-87
2022/04/22 03:45:12;;;;;;;24.05;12.73;;;;;;;;;;5065152;28;20052;-87
2022/04/22 03:47:39;;;;;;;22.00;12.98;;;;;;;;;;5055634;28;20048;-87
2022/04/22 03:50:07;;;;;;;25.92;15.05;;;;;;;;;;5063867;28;20718;-87
2022/04/22 03:52:34;;;;;;;20.15;11.40;;;;;;;;;;5065561;28;20053;-87
2022/04/22 03:55:02;;;;;;;18.85;11.80;;;;;;;;;;5072788;28;20846;-87
2022/04/22 04:00:13;;;;;;;21.48;11.75;;;;;;;;;;5060728;28;20140;-87
2022/04/22 04:02:39;;;;;;;21.02;12.60;;;;;;;;;;5069260;28;20053;-87
2022/04/22 04:05:07;;;;;;;19.05;12.43;;;;;;;;;;5066657;28;20779;-87
2022/04/22 04:07:33;;;;;;;23.35;12.60;;;;;;;;;;5055984;28;20040;-87
2022/04/22 04:18:15;;;;;;;21.05;11.95;;;;;;;;;;5061869;28;20747;-87
2022/04/22 04:23:26;;;;;;;22.23;11.65;;;;;;;;;;5068058;28;20635;-88
2022/04/22 04:25:54;;;;;;;26.90;12.43;;;;;;;;;;5066865;28;20504;-87
2022/04/22 04:28:23;;;;;;;26.33;12.82;;;;;;;;;;5069151;28;20406;-87
2022/04/22 04:30:49;;;;;;;24.80;13.55;;;;;;;;;;5068966;28;20052;-86
2022/04/22 04:33:16;;;;;;;24.40;12.90;;;;;;;;;;5066014;28;20076;-87
2022/04/22 04:35:46;;;;;;;16.65;10.35;;;;;;;;;;5068922;28;20533;-88
2022/04/22 04:38:13;;;;;;;20.27;11.23;;;;;;;;;;5069328;28;20049;-88
2022/04/22 04:40:40;;;;;;;23.17;11.13;;;;;;;;;;5064983;28;20155;-88
2022/04/22 04:43:08;;;;;;;18.27;11.15;;;;;;;;;;5067956;28;20113;-88
2022/04/22 04:45:35;;;;;;;17.80;11.18;;;;;;;;;;5061873;28;20049;-87
2022/04/22 04:48:01;;;;;;;19.00;10.57;;;;;;;;;;5075397;28;20052;-88
2022/04/22 04:50:28;;;;;;;19.10;10.77;;;;;;;;;;5061624;28;20059;-87
2022/04/22 04:52:55;;;;;;;20.75;10.55;;;;;;;;;;5071623;28;20056;-88
2022/04/22 04:55:22;;;;;;;20.17;10.35;;;;;;;;;;5073784;28;20127;-88
2022/04/22 04:57:48;;;;;;;22.75;10.70;;;;;;;;;;5054892;28;20048;-88
2022/04/22 05:00:18;;;;;;;20.08;10.05;;;;;;;;;;5062234;28;20057;-88
2022/04/22 05:02:44;;;;;;;15.23;10.00;;;;;;;;;;5062513;28;20119;-88
2022/04/22 05:05:12;;;;;;;19.17;10.23;;;;;;;;;;5057965;28;20052;-87
2022/04/22 05:07:48;;;;;;;20.17;11.93;;;;;;;;;;5062651;28;20682;-87
2022/04/22 05:10:15;;;;;;;15.85;9.85;;;;;;;;;;5058965;28;20076;-87
2022/04/22 05:12:41;;;;;;;25.73;13.77;;;;;;;;;;5053680;28;20041;-88
2022/04/22 05:15:10;;;;;;;25.88;12.38;;;;;;;;;;5065238;28;20409;-88
2022/04/22 05:17:40;;;;;;;22.30;12.20;;;;;;;;;;5068692;28;20135;-88
2022/04/22 05:20:07;;;;;;;21.17;11.27;;;;;;;;;;5060995;28;20061;-88
2022/04/22 05:22:34;;;;;;;18.58;10.30;;;;;;;;;;5057453;28;20059;-88
2022/04/22 05:25:00;;;;;;;18.38;10.75;;;;;;;;;;5063520;28;20048;-88
2022/04/22 05:27:27;;;;;;;19.40;10.40;;;;;;;;;;5054284;28;20049;-88
2022/04/22 05:32:39;;;;;;;22.85;11.88;;;;;;;;;;5057474;28;20051;-88
2022/04/22 05:35:06;;;;;;;20.50;11.15;;;;;;;;;;5067834;28;20416;-88
2022/04/22 05:37:47;;;;;;;21.65;12.38;;;;;;;;;;5061332;28;20059;-89
2022/04/22 05:40:15;;;;;;;21.23;12.13;;;;;;;;;;5052547;28;20055;-88
2022/04/22 05:42:42;;;;;;;20.63;11.95;;;;;;;;;;5048046;28;20110;-88
2022/04/22 05:45:09;;;;;;;21.00;12.25;;;;;;;;;;5070529;28;20048;-88
2022/04/22 05:47:43;;;;;;;21.85;13.23;;;;;;;;;;5065269;28;20045;-88
2022/04/22 05:50:11;;;;;;;23.60;13.55;;;;;;;;;;5059698;28;20901;-88
2022/04/22 05:52:38;;;;;;;23.77;14.35;;;;;;;;;;5065417;28;20037;-87
2022/04/22 05:55:07;;;;;;;26.77;14.30;;;;;;;;;;5076102;28;20056;-87
2022/04/22 05:57:34;;;;;;;24.50;14.85;;;;;;;;;;5063100;28;20055;-87
2022/04/22 06:00:03;;;;;;;23.77;15.50;;;;;;;;;;5059363;28;20103;-88
2022/04/22 06:02:30;;;;;;;28.85;15.05;;;;;;;;;;5054742;28;20445;-87
2022/04/22 06:04:58;;;;;;;27.17;15.75;;;;;;;;;;5066828;28;20051;-88
2022/04/22 06:07:25;;;;;;;32.88;15.05;;;;;;;;;;5056055;28;20139;-87
2022/04/22 06:12:36;;;;;;;27.55;14.80;;;;;;;;;;5060402;28;20063;-87
2022/04/22 06:15:04;;;;;;;24.77;13.80;;;;;;;;;;5060467;28;20041;-88
2022/04/22 06:17:31;;;;;;;21.50;13.40;;;;;;;;;;5052668;28;20048;-88
2022/04/22 06:19:59;;;;;;;22.10;12.98;;;;;;;;;;5065039;28;20058;-88
2022/04/22 06:22:26;;;;;;;22.85;13.10;;;;;;;;;;5054460;28;20051;-88
2022/04/22 06:24:53;;;;;;;24.80;14.00;;;;;;;;;;5050602;28;20044;-88
2022/04/22 06:27:24;;;;;;;23.35;15.10;;;;;;;;;;5067143;28;20496;-88
2022/04/22 06:29:51;;;;;;;22.17;13.43;;;;;;;;;;5062080;28;20048;-88
2022/04/22 06:32:18;;;;;;;22.15;14.15;;;;;;;;;;5066185;28;20052;-89
2022/04/22 06:34:46;;;;;;;22.48;14.52;;;;;;;;;;5065963;28;20053;-88
2022/04/22 06:37:15;;;;;;;20.55;12.90;;;;;;;;;;5056563;28;20080;-87
2022/04/22 06:47:56;;;;;;;19.05;12.52;;;;;;;;;;5063006;28;20076;-87
2022/04/22 06:50:23;;;;;;;22.05;13.40;;;;;;;;;;5066312;28;20056;-88
2022/04/22 06:52:52;;;;;;;21.08;12.40;;;;;;;;;;5068845;28;20511;-88
2022/04/22 06:55:19;;;;;;;20.88;12.63;;;;;;;;;;5057782;28;20040;-88
2022/04/22 06:57:48;;;;;;;19.33;13.18;;;;;;;;;;5065305;28;20045;-88
2022/04/22 07:00:16;;;;;;;18.42;11.52;;;;;;;;;;5057564;28;20493;-87
2022/04/22 07:02:43;;;;;;;19.63;11.88;;;;;;;;;;5063101;28;20076;-87
2022/04/22 07:05:11;;;;;;;20.33;12.75;;;;;;;;;;5065415;28;20044;-88
2022/04/22 07:07:38;;;;;;;18.40;10.38;;;;;;;;;;5065707;28;20036;-87
2022/04/22 07:10:06;;;;;;;18.67;11.68;;;;;;;;;;5069017;28;20044;-88
2022/04/22 07:12:33;;;;;;;17.98;11.93;;;;;;;;;;5054762;28;20497;-88
2022/04/22 07:15:03;;;;;;;19.85;12.77;;;;;;;;;;5061306;28;20452;-88
2022/04/22 07:17:37;;;;;;;17.95;11.52;;;;;;;;;;5063592;28;20106;-88
2022/04/22 07:20:09;;;;;;;17.27;11.52;;;;;;;;;;5053952;28;20040;-88
2022/04/22 07:22:36;;;;;;;16.52;11.15;;;;;;;;;;5062771;28;20119;-87
2022/04/22 07:25:03;;;;;;;17.33;11.85;;;;;;;;;;5068489;28;20051;-87
2022/04/22 07:27:34;;;;;;;20.25;11.70;;;;;;;;;;5068257;28;20050;-88
2022/04/22 07:30:01;;;;;;;17.25;11.55;;;;;;;;;;5062119;28;20887;-87
2022/04/22 07:32:28;;;;;;;17.00;11.05;;;;;;;;;;5063714;28;20515;-88
2022/04/22 07:34:55;;;;;;;16.27;10.23;;;;;;;;;;5051325;28;20055;-87
2022/04/22 07:37:22;;;;;;;15.88;10.35;;;;;;;;;;5065546;28;20048;-87
2022/04/22 07:39:50;;;;;;;15.35;10.63;;;;;;;;;;5061924;28;20531;-88
2022/04/22 07:42:18;;;;;;;14.88;9.85;;;;;;;;;;5062706;28;20056;-87
2022/04/22 07:47:38;;;;;;;14.32;9.77;;;;;;;;;;5008846;28;20649;-88
2022/04/22 07:50:06;;;;;;;12.82;9.30;;;;;;;;;;5066707;28;20435;-87
2022/04/22 07:52:34;;;;;;;14.23;10.00;;;;;;;;;;5062420;28;20049;-88
2022/04/22 07:55:00;;;;;;;13.15;9.20;;;;;;;;;;5058925;28;20045;-87
2022/04/22 07:57:27;;;;;;;13.52;9.32;;;;;;;;;;5065563;28;20432;-87
2022/04/22 07:59:55;;;;;;;13.60;8.75;;;;;;;;;;5064292;28;20053;-88
2022/04/22 08:02:22;;;;;;;13.35;10.00;;;;;;;;;;5058807;28;20051;-87
2022/04/22 08:04:49;;;;;;;12.45;8.55;;;;;;;;;;5059634;28;20049;-87
2022/04/22 08:07:16;;;;;;;13.57;9.85;;;;;;;;;;5057498;28;20049;-87
2022/04/22 08:09:44;;;;;;;14.38;9.80;;;;;;;;;;5059507;28;20061;-87
2022/04/22 08:12:12;;;;;;;12.75;9.25;;;;;;;;;;5059109;28;20056;-87
2022/04/22 08:14:38;;;;;;;14.82;9.68;;;;;;;;;;5061600;28;20071;-87
2022/04/22 08:17:09;;;;;;;13.18;8.98;;;;;;;;;;5060386;28;20052;-87
2022/04/22 08:19:36;;;;;;;13.57;10.20;;;;;;;;;;5056541;28;20565;-87
2022/04/22 08:22:03;;;;;;;14.93;9.90;;;;;;;;;;5059174;28;20080;-88
2022/04/22 08:24:29;;;;;;;13.48;9.45;;;;;;;;;;5059700;28;20049;-87
2022/04/22 08:26:57;;;;;;;12.70;8.40;;;;;;;;;;5059640;28;20045;-87
2022/04/22 08:29:23;;;;;;;13.95;9.35;;;;;;;;;;5058292;28;20048;-88
2022/04/22 08:31:50;;;;;;;14.10;8.93;;;;;;;;;;5059597;28;20055;-87
2022/04/22 08:34:18;;;;;;;13.15;9.57;;;;;;;;;;5060095;28;20369;-88
2022/04/22 08:36:46;;;;;;;15.25;10.25;;;;;;;;;;5062601;28;20055;-86
2022/04/22 08:39:13;;;;;;;14.32;10.07;;;;;;;;;;5064361;28;20090;-89
2022/04/22 08:41:41;;;;;;;12.05;9.50;;;;;;;;;;5058191;28;20048;-88
2022/04/22 08:44:11;;;;;;;12.45;9.70;;;;;;;;;;5061240;28;20139;-88
2022/04/22 08:52:10;;;;;;;15.00;9.02;;;;;;;;;;5064196;28;20892;-86
2022/04/22 08:54:39;;;;;;;14.77;9.75;;;;;;;;;;5060627;28;20049;-87
2022/04/22 08:57:06;;;;;;;14.02;8.98;;;;;;;;;;5051874;28;20056;-87
2022/04/22 08:59:32;;;;;;;12.35;9.38;;;;;;;;;;5057939;28;20049;-87
2022/04/22 09:01:59;;;;;;;14.02;9.02;;;;;;;;;;5078013;28;20039;-87
2022/04/22 09:04:27;;;;;;;13.25;9.30;;;;;;;;;;5070150;28;20049;-88
2022/04/22 09:06:54;;;;;;;14.05;9.57;;;;;;;;;;5064669;28;20049;-87
2022/04/22 09:09:21;;;;;;;13.13;9.48;;;;;;;;;;5068255;28;20105;-88
2022/04/22 09:11:48;;;;;;;12.02;9.23;;;;;;;;;;5053867;28;20049;-88
2022/04/22 09:14:19;;;;;;;13.98;9.23;;;;;;;;;;5053677;28;20046;-88
2022/04/22 09:16:46;;;;;;;13.93;9.73;;;;;;;;;;5070640;28;20151;-89
2022/04/22 09:19:18;;;;;;;14.57;9.70;;;;;;;;;;5064116;28;20052;-88
2022/04/22 09:21:56;;;;;;;13.05;9.45;;;;;;;;;;5066962;28;20086;-88
2022/04/22 09:24:22;;;;;;;11.82;9.27;;;;;;;;;;5068802;28;20062;-88
2022/04/22 09:27:03;;;;;;;13.30;9.77;;;;;;;;;;5067390;28;20080;-89
2022/04/22 09:29:30;;;;;;;14.02;9.38;;;;;;;;;;5067978;28;20385;-88
2022/04/22 09:31:57;;;;;;;12.48;9.25;;;;;;;;;;5071647;28;20055;-88
2022/04/22 09:34:33;;;;;;;13.10;9.60;;;;;;;;;;5056058;28;20052;-88
2022/04/22 09:42:49;;;;;;;13.48;10.30;;;;;;;;;;5066061;28;20067;-89
2022/04/22 09:45:16;;;;;;;12.43;9.45;;;;;;;;;;5067797;28;20584;-88
2022/04/22 09:48:00;;;;;;;13.52;10.13;;;;;;;;;;5058858;28;20063;-88
2022/04/22 09:50:41;;;;;;;11.35;8.68;;;;;;;;;;5058441;28;20057;-88
2022/04/22 09:53:10;;;;;;;13.90;9.30;;;;;;;;;;5050711;28;20045;-88
2022/04/22 09:55:47;;;;;;;14.00;10.02;;;;;;;;;;5059835;28;20045;-88
2022/04/22 09:58:13;;;;;;;10.95;8.32;;;;;;;;;;5061866;28;20509;-88
2022/04/22 10:00:40;;;;;;;12.38;9.60;;;;;;;;;;5069435;28;20040;-88
2022/04/22 10:03:09;;;;;;;12.15;8.95;;;;;;;;;;5072549;28;20127;-88
2022/04/22 10:05:36;;;;;;;12.07;9.25;;;;;;;;;;5076751;28;20649;-88
2022/04/22 10:08:04;;;;;;;13.73;9.15;;;;;;;;;;5068072;28;20055;-87
2022/04/22 10:10:33;;;;;;;11.77;9.05;;;;;;;;;;5061761;28;20044;-88
2022/04/22 10:13:02;;;;;;;13.15;9.63;;;;;;;;;;5058417;28;20079;-88
2022/04/22 10:15:29;;;;;;;11.82;8.80;;;;;;;;;;5071576;28;20040;-88
2022/04/22 10:17:59;;;;;;;12.13;8.70;;;;;;;;;;5069283;28;20633;-87
2022/04/22 10:20:27;;;;;;;10.60;7.90;;;;;;;;;;5061676;28;20132;-88
2022/04/22 10:22:54;;;;;;;12.02;9.48;;;;;;;;;;5059677;28;20063;-86
2022/04/22 10:25:21;;;;;;;15.20;9.45;;;;;;;;;;5066054;28;20048;-86
2022/04/22 10:27:49;;;;;;;12.95;8.95;;;;;;;;;;5066524;28;20041;-86
2022/04/22 10:30:16;;;;;;;11.00;8.95;;;;;;;;;;5063943;28;20055;-86
2022/04/22 10:32:45;;;;;;;11.00;8.95;;;;;;;;;;5057840;28;20595;-86
2022/04/22 10:35:13;;;;;;;10.88;8.93;;;;;;;;;;5057566;28;20090;-85
2022/04/22 10:37:41;;;;;;;11.20;8.60;;;;;;;;;;5057546;28;20417;-88
2022/04/22 10:40:18;;;;;;;10.63;8.80;;;;;;;;;;5059475;28;20052;-86
2022/04/22 10:42:45;;;;;;;11.48;8.45;;;;;;;;;;5057126;28;20041;-88
2022/04/22 10:48:21;;;;;;;10.63;8.65;;;;;;;;;;4997174;28;20665;-86
2022/04/22 10:50:58;;;;;;;13.18;8.10;;;;;;;;;;4994932;28;20050;-87
2022/04/22 10:53:25;;;;;;;11.75;8.70;;;;;;;;;;5031012;28;20059;-87
2022/04/22 10:55:52;;;;;;;11.70;8.77;;;;;;;;;;5056740;28;20052;-87
2022/04/22 10:58:26;;;;;;;11.52;8.52;;;;;;;;;;5058131;28;20058;-87
2022/04/22 11:00:58;;;;;;;10.95;8.18;;;;;;;;;;5056020;28;20059;-88
2022/04/22 11:03:27;;;;;;;10.85;8.25;;;;;;;;;;5057333;28;20052;-88
2022/04/22 11:05:56;;;;;;;9.13;7.80;;;;;;;;;;5058978;28;20053;-87
2022/04/22 11:08:25;;;;;;;12.95;7.88;;;;;;;;;;5060765;28;20045;-88
2022/04/22 11:11:08;;;;;;;11.57;8.40;;;;;;;;;;5062260;28;20098;-87
2022/04/22 11:13:39;;;;;;;10.55;7.70;;;;;;;;;;5058365;28;20067;-87
2022/04/22 11:16:09;;;;;;;10.57;8.23;;;;;;;;;;5057280;28;20107;-87
2022/04/22 11:18:41;;;;;;;12.10;8.77;;;;;;;;;;5060496;28;20040;-86
2022/04/22 11:21:12;;;;;;;10.30;8.02;;;;;;;;;;5059906;28;20076;-88
2022/04/22 11:23:48;;;;;;;10.88;8.95;;;;;;;;;;5049463;28;20048;-87
2022/04/22 11:26:15;;;;;;;11.43;8.40;;;;;;;;;;5058071;28;20036;-87
2022/04/22 11:28:43;;;;;;;10.07;7.95;;;;;;;;;;5060803;28;20044;-87
2022/04/22 11:31:13;;;;;;;9.07;7.65;;;;;;;;;;5055974;28;20676;-87
2022/04/22 11:33:53;;;;;;;11.40;7.07;;;;;;;;;;5054440;28;20464;-88
2022/04/22 11:36:20;;;;;;;12.30;8.70;;;;;;;;;;5062787;28;20049;-87
2022/04/22 11:38:48;;;;;;;10.88;7.88;;;;;;;;;;5064985;28;20129;-87
2022/04/22 11:41:16;;;;;;;12.20;8.25;;;;;;;;;;5060597;28;20044;-88
2022/04/22 11:43:43;;;;;;;11.68;7.53;;;;;;;;;;5057721;28;20045;-87
2022/04/22 11:46:18;;;;;;;10.25;7.68;;;;;;;;;;5059142;28;20087;-88
2022/04/22 11:48:46;;;;;;;11.23;8.23;;;;;;;;;;5055953;28;20480;-88
2022/04/22 11:51:13;;;;;;;11.18;8.15;;;;;;;;;;5057928;28;20417;-88
2022/04/22 11:53:46;;;;;;;9.68;7.88;;;;;;;;;;5056560;28;20037;-88
2022/04/22 11:56:17;;;;;;;10.52;8.90;;;;;;;;;;5052449;28;20242;-88
2022/04/22 11:58:43;;;;;;;11.23;9.27;;;;;;;;;;5060711;28;20059;-88
2022/04/22 12:06:40;;;;;;;11.02;8.02;;;;;;;;;;5061052;28;20043;-86
2022/04/22 12:09:07;;;;;;;9.35;7.57;;;;;;;;;;5066465;28;20509;-85
2022/04/22 12:11:39;;;;;;;9.38;7.05;;;;;;;;;;5066256;28;20138;-86
2022/04/22 12:14:06;;;;;;;10.10;7.57;;;;;;;;;;5062933;28;20060;-86
2022/04/22 12:16:38;;;;;;;11.50;8.63;;;;;;;;;;5057604;28;20045;-86
2022/04/22 12:19:06;;;;;;;9.48;7.00;;;;;;;;;;5073560;28;20944;-87
2022/04/22 12:21:34;;;;;;;9.45;6.75;;;;;;;;;;5069448;28;20049;-89
2022/04/22 12:24:02;;;;;;;11.20;8.35;;;;;;;;;;5056285;28;20053;-87
2022/04/22 12:26:31;;;;;;;8.35;6.63;;;;;;;;;;5069821;28;20053;-87
2022/04/22 12:29:02;;;;;;;9.40;6.95;;;;;;;;;;5060731;28;20036;-87
2022/04/22 12:31:30;;;;;;;9.57;7.32;;;;;;;;;;5065952;28;20160;-88
2022/04/22 12:33:59;;;;;;;11.43;8.18;;;;;;;;;;5062277;28;20051;-88
2022/04/22 12:36:25;;;;;;;11.68;8.75;;;;;;;;;;5059404;28;20052;-89
2022/04/22 12:38:52;;;;;;;10.77;8.30;;;;;;;;;;5068326;28;20044;-88
2022/04/22 12:41:22;;;;;;;9.60;7.75;;;;;;;;;;5063874;28;20048;-89
2022/04/22 12:43:55;;;;;;;10.55;7.40;;;;;;;;;;5063621;28;20049;-88
2022/04/22 12:52:10;;;;;;;11.18;7.97;;;;;;;;;;5068044;28;20047;-86
2022/04/22 12:54:37;;;;;;;10.20;8.35;;;;;;;;;;5064626;28;20055;-87
2022/04/22 12:57:05;;;;;;;9.40;7.40;;;;;;;;;;5060064;28;20061;-87
2022/04/22 12:59:45;;;;;;;11.05;8.18;;;;;;;;;;5057503;28;20036;-87
2022/04/22 13:02:14;;;;;;;11.20;8.63;;;;;;;;;;5069567;28;20041;-88
2022/04/22 13:04:53;;;;;;;10.50;7.78;;;;;;;;;;5058213;28;20133;-87
2022/04/22 13:07:21;;;;;;;9.60;7.60;;;;;;;;;;5052486;28;20059;-88
2022/04/22 13:09:47;;;;;;;9.90;7.43;;;;;;;;;;5065412;28;20044;-87
2022/04/22 13:12:14;;;;;;;12.68;7.88;;;;;;;;;;5069114;28;20573;-89
2022/04/22 13:14:41;;;;;;;11.73;7.40;;;;;;;;;;5060425;28;20053;-88
2022/04/22 13:17:18;;;;;;;8.95;7.13;;;;;;;;;;5061389;28;20052;-87
2022/04/22 13:19:44;;;;;;;9.27;7.00;;;;;;;;;;5062000;28;20044;-88
2022/04/22 13:22:12;;;;;;;9.10;6.88;;;;;;;;;;5067677;28;20687;-88
2022/04/22 13:24:40;;;;;;;10.00;7.53;;;;;;;;;;5065919;28;20068;-88
2022/04/22 13:27:07;;;;;;;11.30;8.27;;;;;;;;;;5056234;28;20056;-89
2022/04/22 13:29:35;;;;;;;9.68;7.72;;;;;;;;;;5067873;28;20064;-89
2022/04/22 13:32:03;;;;;;;8.38;6.82;;;;;;;;;;5079587;28;20039;-89
2022/04/22 13:34:30;;;;;;;9.80;7.53;;;;;;;;;;5058130;28;20049;-87
2022/04/22 13:36:56;;;;;;;11.13;7.75;;;;;;;;;;5065904;28;20037;-89
2022/04/22 13:39:24;;;;;;;7.75;6.63;;;;;;;;;;5065767;28;20163;-89
2022/04/22 13:41:51;;;;;;;8.52;6.80;;;;;;;;;;5056438;28;20048;-87
2022/04/22 13:52:21;;;;;;;9.88;7.55;;;;;;;;;;5054792;28;20045;-86
2022/04/22 13:52:34;;;;;;;12.15;7.63;;;;;;;;;;5064198;28;20644;-89
2022/04/22 13:55:02;;;;;;;12.40;10.25;;;;;;;;;;5057029;28;20060;-87
2022/04/22 13:57:29;;;;;;;12.23;9.48;;;;;;;;;;5063203;28;20045;-87
2022/04/22 13:59:55;;;;;;;15.45;12.48;;;;;;;;;;5064300;28;20048;-87
2022/04/22 14:02:22;;;;;;;11.38;9.02;;;;;;;;;;5065659;28;20037;-88
2022/04/22 14:04:50;;;;;;;10.32;8.55;;;;;;;;;;5067766;28;20051;-88
2022/04/22 14:07:16;;;;;;;11.35;8.27;;;;;;;;;;5064446;28;20068;-87
2022/04/22 14:09:43;;;;;;;11.00;7.60;;;;;;;;;;5068322;28;20620;-88
2022/04/22 14:12:12;;;;;;;11.18;7.88;;;;;;;;;;5069141;28;20048;-88
2022/04/22 14:14:38;;;;;;;9.57;7.30;;;;;;;;;;5060182;28;20056;-87
2022/04/22 14:17:08;;;;;;;7.63;6.60;;;;;;;;;;5066730;28;20464;-88
2022/04/22 14:19:35;;;;;;;10.98;7.68;;;;;;;;;;5068441;28;20045;-87
2022/04/22 14:22:01;;;;;;;8.88;7.65;;;;;;;;;;5069234;28;20457;-88
2022/04/22 14:24:31;;;;;;;8.38;7.03;;;;;;;;;;5067425;28;20041;-89
2022/04/22 14:27:01;;;;;;;9.90;8.60;;;;;;;;;;5067941;28;20718;-89
2022/04/22 14:29:29;;;;;;;10.18;7.82;;;;;;;;;;5062547;28;20099;-88
2022/04/22 14:31:55;;;;;;;11.25;7.63;;;;;;;;;;5058538;28;20052;-88
2022/04/22 14:34:22;;;;;;;8.75;6.95;;;;;;;;;;5062594;28;20051;-87
2022/04/22 14:36:49;;;;;;;9.60;7.88;;;;;;;;;;5066361;28;20054;-88
2022/04/22 14:39:15;;;;;;;10.38;8.40;;;;;;;;;;5050741;28;20056;-88
2022/04/22 14:41:45;;;;;;;8.95;7.18;;;;;;;;;;5060445;28;20060;-88
2022/04/22 14:44:14;;;;;;;9.27;7.88;;;;;;;;;;5066919;28;20041;-88
2022/04/22 14:46:45;;;;;;;10.18;6.97;;;;;;;;;;5062121;28;20049;-89
2022/04/22 14:49:14;;;;;;;8.27;7.20;;;;;;;;;;5062209;28;20658;-88
2022/04/22 14:51:40;;;;;;;8.95;6.65;;;;;;;;;;5061241;28;20048;-88
2022/04/22 14:54:09;;;;;;;10.45;7.40;;;;;;;;;;5058315;28;20752;-88
2022/04/22 14:56:36;;;;;;;8.48;7.03;;;;;;;;;;5059721;28;20054;-89
2022/04/22 14:59:02;;;;;;;11.43;7.80;;;;;;;;;;5068143;28;20059;-89
2022/04/22 15:01:29;;;;;;;8.15;7.10;;;;;;;;;;5065858;28;20096;-87
2022/04/22 15:03:57;;;;;;;9.73;6.78;;;;;;;;;;5061465;28;20048;-89
2022/04/22 15:06:24;;;;;;;9.20;7.35;;;;;;;;;;5063224;28;20139;-89
2022/04/22 15:08:51;;;;;;;9.07;7.53;;;;;;;;;;5074950;28;20054;-88
2022/04/22 15:11:17;;;;;;;10.00;7.63;;;;;;;;;;5058144;28;20048;-88
2022/04/22 15:13:44;;;;;;;11.55;7.65;;;;;;;;;;5066277;28;20488;-88
2022/04/22 15:16:11;;;;;;;9.13;7.10;;;;;;;;;;5062672;28;20163;-88
2022/04/22 15:24:15;;;;;;;8.30;6.60;;;;;;;;;;5067373;28;20063;-87
2022/04/22 15:26:43;;;;;;;;;;;;;;;;;;5064295;28;20106;-89
2022/04/22 15:29:11;;;;;;;10.07;6.53;;;;;;;;;;5065392;28;20013;-88
2022/04/22 15:31:39;;;;;;;10.80;6.90;;;;;;;;;;5064412;28;20056;-88
2022/04/22 15:34:05;;;;;;;10.52;7.18;;;;;;;;;;5067126;28;20044;-88
2022/04/22 15:36:33;;;;;;;9.55;6.72;;;;;;;;;;5063819;28;20061;-88
2022/04/22 15:39:02;;;;;;;9.07;6.68;;;;;;;;;;5067904;28;20052;-89
2022/04/22 15:41:30;;;;;;;7.00;5.82;;;;;;;;;;5056632;28;20049;-88
2022/04/22 15:43:58;;;;;;;9.05;7.13;;;;;;;;;;5060070;28;20046;-89
2022/04/22 15:46:25;;;;;;;9.65;6.93;;;;;;;;;;5066252;28;20072;-89
2022/04/22 15:48:52;;;;;;;8.30;6.50;;;;;;;;;;5058870;28;20111;-90
2022/04/22 15:51:21;;;;;;;8.18;5.93;;;;;;;;;;5060015;28;20132;-89